Time;durP1;ratioP1;P1;durP2;ratioP2;P2;SDS_P1;SDS_P2;PMS_P1;PMS_P2;Temp;Humidity;BMP_temperature;BMP_pressure;BME280_temperature;BME280_humidity;BME280_pressure;Samples;Min_cycle;Max_cycle;Signal;HPM_P1;HPM_P2
2022/11/06 00:00:02;;;;;;;11.80;4.63;;;10.40;99.90;;;;;;5090750;28;20040;-83
2022/11/06 00:02:29;;;;;;;9.57;4.78;;;10.40;99.90;;;;;;5090608;28;20059;-83
2022/11/06 00:06:46;;;;;;;12.27;4.95;;;10.40;99.90;;;;;;5073613;28;20046;-81
2022/11/06 00:07:40;;;;;;;7.93;3.72;;;10.40;99.90;;;;;;5090778;28;20134;-81
2022/11/06 00:10:06;;;;;;;11.73;4.88;;;10.40;99.90;;;;;;5090485;28;20127;-81
2022/11/06 00:12:31;;;;;;;11.15;4.05;;;10.40;99.90;;;;;;5090262;28;20122;-81
2022/11/06 00:14:57;;;;;;;12.40;4.15;;;10.40;99.90;;;;;;5090432;28;20040;-81
2022/11/06 00:17:22;;;;;;;9.60;3.90;;;10.30;99.90;;;;;;5090563;28;20040;-81
2022/11/06 00:19:48;;;;;;;9.65;4.45;;;10.30;99.90;;;;;;5090376;28;20036;-81
2022/11/06 00:22:15;;;;;;;11.25;4.95;;;10.30;99.90;;;;;;5090211;28;20040;-81
2022/11/06 00:24:40;;;;;;;9.07;3.70;;;10.30;99.90;;;;;;5092264;28;20040;-81
2022/11/06 00:27:06;;;;;;;10.60;4.85;;;10.30;99.90;;;;;;5094522;28;20040;-81
2022/11/06 00:29:31;;;;;;;11.80;4.55;;;10.30;99.90;;;;;;5094616;28;20131;-81
2022/11/06 00:31:57;;;;;;;10.52;4.72;;;10.20;99.90;;;;;;5094351;28;20075;-81
2022/11/06 00:34:22;;;;;;;12.68;5.00;;;10.20;99.90;;;;;;5095438;28;20482;-81
2022/11/06 00:36:48;;;;;;;10.85;4.45;;;10.20;99.90;;;;;;5094286;28;20521;-81
2022/11/06 00:39:13;;;;;;;15.10;6.35;;;10.20;99.90;;;;;;5094396;28;20032;-81
2022/11/06 00:41:39;;;;;;;11.68;5.13;;;10.20;99.90;;;;;;5094331;28;20096;-81
2022/11/06 00:44:04;;;;;;;10.60;4.55;;;10.20;99.90;;;;;;5094207;28;20055;-81
2022/11/06 00:46:30;;;;;;;9.07;4.30;;;10.20;99.90;;;;;;5094129;28;20409;-81
2022/11/06 00:48:56;;;;;;;10.40;4.18;;;10.20;99.90;;;;;;5094100;28;20085;-81
2022/11/06 00:51:31;;;;;;;10.02;4.78;;;10.20;99.90;;;;;;5077566;28;20463;-81
2022/11/06 00:53:59;;;;;;;12.90;4.93;;;10.20;99.90;;;;;;5093712;28;20043;-81
2022/11/06 00:56:29;;;;;;;8.90;4.35;;;10.20;99.90;;;;;;5094477;28;20035;-80
2022/11/06 00:58:57;;;;;;;14.00;4.32;;;10.20;99.90;;;;;;5094019;28;20077;-81
2022/11/06 01:01:25;;;;;;;11.00;3.85;;;10.20;99.90;;;;;;5093713;28;20123;-81
2022/11/06 01:03:57;;;;;;;9.40;4.13;;;10.20;99.90;;;;;;5093044;28;20036;-81
2022/11/06 01:06:25;;;;;;;10.52;4.18;;;10.20;99.90;;;;;;5093993;28;20044;-81
2022/11/06 01:08:51;;;;;;;10.50;4.68;;;10.20;99.90;;;;;;5077129;28;20036;-81
2022/11/06 01:11:25;;;;;;;12.60;4.68;;;10.20;99.90;;;;;;5093771;28;20561;-81
2022/11/06 01:13:54;;;;;;;9.48;4.45;;;10.20;99.90;;;;;;5076136;28;20040;-83
2022/11/06 01:16:20;;;;;;;12.63;5.30;;;10.20;99.90;;;;;;5093712;28;20157;-83
2022/11/06 01:18:46;;;;;;;11.23;4.03;;;10.20;99.90;;;;;;5093949;28;20508;-83
2022/11/06 01:21:30;;;;;;;9.48;3.70;;;10.10;99.90;;;;;;5076675;28;20374;-83
2022/11/06 01:24:00;;;;;;;10.57;4.20;;;10.10;99.90;;;;;;5076506;28;20098;-83
2022/11/06 01:26:26;;;;;;;11.32;4.28;;;10.10;99.90;;;;;;5076723;28;20036;-83
2022/11/06 01:28:59;;;;;;;13.07;4.35;;;10.10;99.90;;;;;;5093520;28;20078;-83
2022/11/06 01:31:29;;;;;;;12.07;3.67;;;10.20;99.90;;;;;;5076595;28;20036;-83
2022/11/06 01:33:57;;;;;;;9.98;4.40;;;10.20;99.90;;;;;;5076392;28;20036;-83
2022/11/06 01:36:23;;;;;;;10.98;4.00;;;10.20;99.90;;;;;;5092893;28;20036;-83
2022/11/06 01:38:51;;;;;;;8.88;3.47;;;10.10;99.90;;;;;;5076187;28;20043;-83
2022/11/06 01:41:20;;;;;;;9.60;3.22;;;10.10;99.90;;;;;;5093451;28;20052;-83
2022/11/06 01:43:53;;;;;;;9.90;4.00;;;10.10;99.90;;;;;;5092816;28;20035;-83
2022/11/06 01:46:20;;;;;;;10.60;4.38;;;10.10;99.90;;;;;;5093015;28;20051;-83
2022/11/06 01:48:56;;;;;;;12.60;4.57;;;10.10;99.90;;;;;;5076195;28;20035;-83
2022/11/06 01:51:25;;;;;;;11.68;4.88;;;10.00;99.90;;;;;;5093267;28;20435;-84
2022/11/06 01:53:52;;;;;;;9.95;4.30;;;10.00;99.90;;;;;;5092422;28;20036;-83
2022/11/06 01:56:19;;;;;;;9.10;3.92;;;10.00;99.90;;;;;;5076007;28;20621;-83
2022/11/06 01:58:46;;;;;;;10.43;4.97;;;10.00;99.90;;;;;;5092907;28;20082;-83
2022/11/06 02:01:12;;;;;;;13.55;3.95;;;10.00;99.90;;;;;;5075968;28;20485;-83
2022/11/06 02:03:41;;;;;;;11.82;4.30;;;10.00;99.90;;;;;;5092335;28;20405;-83
2022/11/06 02:06:08;;;;;;;9.23;4.18;;;10.00;99.90;;;;;;5092723;28;20118;-83
2022/11/06 02:08:34;;;;;;;7.88;3.33;;;10.00;99.90;;;;;;5092692;28;20081;-83
2022/11/06 02:10:59;;;;;;;12.82;4.72;;;10.00;99.90;;;;;;5092577;28;20031;-84
2022/11/06 02:13:55;;;;;;;8.10;3.88;;;10.00;99.90;;;;;;5092507;28;20446;-83
2022/11/06 02:16:26;;;;;;;12.23;4.28;;;9.90;99.90;;;;;;5092631;28;20135;-83
2022/11/06 02:19:19;;;;;;;12.45;4.25;;;10.00;99.90;;;;;;5075860;28;20047;-83
2022/11/06 02:21:58;;;;;;;7.97;3.13;;;10.00;99.90;;;;;;5092787;28;20071;-83
2022/11/06 02:25:03;;;;;;;11.20;4.85;;;10.00;99.90;;;;;;5092140;28;20051;-83
2022/11/06 02:27:30;;;;;;;10.70;4.15;;;10.00;99.90;;;;;;5078877;28;20051;-83
2022/11/06 02:30:07;;;;;;;11.40;4.32;;;10.00;99.90;;;;;;5092420;28;20467;-83
2022/11/06 02:32:57;;;;;;;11.80;4.60;;;9.90;99.90;;;;;;5092298;28;20062;-83
2022/11/06 02:35:28;;;;;;;10.63;4.65;;;9.90;99.90;;;;;;5092200;28;20044;-83
2022/11/06 02:38:00;;;;;;;12.00;4.55;;;9.90;99.90;;;;;;5075218;28;20040;-83
2022/11/06 02:40:32;;;;;;;12.63;4.03;;;9.80;99.90;;;;;;5075441;28;20115;-83
2022/11/06 02:42:59;;;;;;;10.65;4.63;;;9.80;99.90;;;;;;5074853;28;20040;-83
2022/11/06 02:45:28;;;;;;;11.43;4.40;;;9.80;99.90;;;;;;5091888;28;20077;-83
2022/11/06 02:47:55;;;;;;;12.30;4.30;;;9.80;99.90;;;;;;5090941;28;20071;-83
2022/11/06 02:50:27;;;;;;;10.07;4.30;;;9.80;99.90;;;;;;5091878;28;20043;-83
2022/11/06 02:53:01;;;;;;;16.05;4.80;;;9.70;99.90;;;;;;5091481;28;20104;-83
2022/11/06 02:55:39;;;;;;;11.18;2.95;;;9.70;99.90;;;;;;5074953;28;20071;-83
2022/11/06 02:58:15;;;;;;;8.52;3.45;;;9.70;99.90;;;;;;5091608;28;20036;-83
2022/11/06 03:00:47;;;;;;;11.70;4.10;;;9.70;99.90;;;;;;5074664;28;20032;-83
2022/11/06 03:03:22;;;;;;;8.20;3.28;;;9.70;99.90;;;;;;5074372;28;20044;-83
2022/11/06 03:06:08;;;;;;;9.95;3.42;;;9.70;99.90;;;;;;5091646;28;20042;-83
2022/11/06 03:08:40;;;;;;;8.63;3.47;;;9.70;99.90;;;;;;5091498;28;20036;-83
2022/11/06 03:11:17;;;;;;;10.82;3.60;;;9.70;99.90;;;;;;5091748;28;20042;-84
2022/11/06 03:14:01;;;;;;;10.00;3.40;;;9.70;99.90;;;;;;5091238;28;20067;-83
2022/11/06 03:16:35;;;;;;;9.15;3.83;;;9.70;99.90;;;;;;5091296;28;20126;-83
2022/11/06 03:19:26;;;;;;;8.73;3.35;;;9.70;99.90;;;;;;5091307;28;20036;-83
2022/11/06 03:22:15;;;;;;;5.70;2.17;;;9.80;99.90;;;;;;5074664;28;20080;-83
2022/11/06 03:25:04;;;;;;;9.98;3.42;;;9.70;99.90;;;;;;5074432;28;20040;-83
2022/11/06 03:27:37;;;;;;;7.93;2.47;;;9.80;99.90;;;;;;5091176;28;20036;-83
2022/11/06 03:30:10;;;;;;;10.70;3.17;;;9.80;99.90;;;;;;5091062;28;20076;-83
2022/11/06 03:32:47;;;;;;;11.60;3.20;;;9.80;99.90;;;;;;5090915;28;20040;-83
2022/11/06 03:35:46;;;;;;;12.27;3.60;;;9.80;99.90;;;;;;5074123;28;20079;-83
2022/11/06 03:38:34;;;;;;;11.77;2.90;;;9.80;99.90;;;;;;5013173;28;20080;-83
2022/11/06 03:41:07;;;;;;;6.65;3.03;;;9.80;99.90;;;;;;4997228;28;20463;-83
2022/11/06 03:43:35;;;;;;;12.43;3.55;;;9.80;99.90;;;;;;4996792;28;20052;-83
2022/11/06 03:46:04;;;;;;;10.50;2.80;;;9.80;99.90;;;;;;5013100;28;20037;-83
2022/11/06 03:48:38;;;;;;;8.60;2.88;;;9.80;99.90;;;;;;4996820;28;20577;-83
2022/11/06 03:51:13;;;;;;;10.55;2.63;;;9.90;99.90;;;;;;4996779;28;20037;-83
2022/11/06 03:53:57;;;;;;;12.45;3.00;;;9.90;99.90;;;;;;5012824;28;20045;-83
2022/11/06 03:56:29;;;;;;;8.13;3.85;;;9.90;99.90;;;;;;4996434;28;20057;-83
2022/11/06 03:58:57;;;;;;;6.88;2.65;;;9.80;99.90;;;;;;4996565;28;20116;-83
2022/11/06 04:01:27;;;;;;;8.55;2.92;;;9.90;99.90;;;;;;5013017;28;20100;-83
2022/11/06 04:04:02;;;;;;;6.80;2.33;;;9.90;99.90;;;;;;4996503;28;20450;-83
2022/11/06 04:06:27;;;;;;;9.50;2.80;;;9.90;99.90;;;;;;4996638;28;20052;-83
2022/11/06 04:14:31;;;;;;;8.32;3.03;;;9.90;99.90;;;;;;5047751;28;20044;-83
2022/11/06 04:17:01;;;;;;;9.82;3.33;;;9.80;99.90;;;;;;5073675;28;20036;-83
2022/11/06 04:19:26;;;;;;;9.52;3.17;;;9.80;99.90;;;;;;5090462;28;20092;-83
2022/11/06 04:22:04;;;;;;;9.93;3.00;;;9.90;99.90;;;;;;5090524;28;20455;-83
2022/11/06 04:27:52;;;;;;;;;;;9.90;99.90;;;;;;5090737;28;20047;-83
2022/11/06 04:30:18;;;;;;;7.25;1.92;;;9.80;99.90;;;;;;5073448;28;20384;-83
2022/11/06 04:32:43;;;;;;;7.55;2.17;;;9.80;99.90;;;;;;5090123;28;20044;-83
2022/11/06 04:35:26;;;;;;;6.90;2.63;;;9.80;99.90;;;;;;5090295;28;20040;-83
2022/11/06 04:38:11;;;;;;;10.05;2.85;;;9.80;99.90;;;;;;5073483;28;20040;-83
2022/11/06 04:40:46;;;;;;;9.73;2.88;;;9.70;99.90;;;;;;5090553;28;20115;-83
2022/11/06 04:43:19;;;;;;;9.88;2.35;;;9.70;99.90;;;;;;5073164;28;20126;-83
2022/11/06 04:45:48;;;;;;;14.32;3.85;;;9.70;99.90;;;;;;5073783;28;20405;-83
2022/11/06 04:48:16;;;;;;;9.45;3.00;;;9.60;99.90;;;;;;5090394;28;20130;-82
2022/11/06 04:50:48;;;;;;;6.72;2.33;;;9.60;99.90;;;;;;5090167;28;20048;-82
2022/11/06 04:53:16;;;;;;;9.63;2.35;;;9.60;99.90;;;;;;5090191;28;20075;-83
2022/11/06 04:55:51;;;;;;;7.28;2.60;;;9.60;99.90;;;;;;5090202;28;20039;-83
2022/11/06 04:58:17;;;;;;;9.32;2.83;;;9.60;99.90;;;;;;5073399;28;20036;-83
2022/11/06 05:00:47;;;;;;;11.15;2.67;;;9.60;99.90;;;;;;5090063;28;20054;-83
2022/11/06 05:03:14;;;;;;;8.68;2.30;;;9.60;99.90;;;;;;5090013;28;20040;-83
2022/11/06 05:05:40;;;;;;;7.90;2.65;;;9.60;99.90;;;;;;5073535;28;20046;-83
2022/11/06 05:08:12;;;;;;;8.93;2.20;;;9.60;99.90;;;;;;5073384;28;20032;-83
2022/11/06 05:10:38;;;;;;;6.32;2.10;;;9.60;99.90;;;;;;5091538;28;20047;-83
2022/11/06 05:13:03;;;;;;;10.20;2.45;;;9.60;99.90;;;;;;5093329;28;20044;-83
2022/11/06 05:15:29;;;;;;;11.23;2.47;;;9.70;99.90;;;;;;5077090;28;20603;-83
2022/11/06 05:17:57;;;;;;;10.10;2.53;;;9.70;99.90;;;;;;5093692;28;20401;-83
2022/11/06 05:20:23;;;;;;;8.18;2.53;;;9.70;99.90;;;;;;5077018;28;20032;-83
2022/11/06 05:22:57;;;;;;;8.50;2.63;;;9.60;99.90;;;;;;5093648;28;20496;-83
2022/11/06 05:25:33;;;;;;;6.85;2.53;;;9.70;99.90;;;;;;5076695;28;20114;-83
2022/11/06 05:27:59;;;;;;;10.05;2.35;;;9.70;99.90;;;;;;5093396;28;20051;-83
2022/11/06 05:30:26;;;;;;;9.23;2.13;;;9.70;99.90;;;;;;5093216;28;20093;-83
2022/11/06 05:32:52;;;;;;;10.02;2.67;;;9.70;99.90;;;;;;5076271;28;20173;-83
2022/11/06 05:35:19;;;;;;;6.80;2.33;;;9.70;99.90;;;;;;5093360;28;20044;-83
2022/11/06 05:37:45;;;;;;;7.60;2.30;;;9.70;99.90;;;;;;5093289;28;20089;-83
2022/11/06 05:40:11;;;;;;;9.27;2.65;;;9.70;99.90;;;;;;5093175;28;20044;-83
2022/11/06 05:42:38;;;;;;;8.50;2.25;;;9.70;99.90;;;;;;5092902;28;20039;-83
2022/11/06 05:45:04;;;;;;;7.35;2.28;;;9.70;99.90;;;;;;5076497;28;20051;-83
2022/11/06 05:47:29;;;;;;;7.72;2.47;;;9.70;99.90;;;;;;5093125;28;20068;-83
2022/11/06 05:49:55;;;;;;;6.97;2.13;;;9.70;99.90;;;;;;5076217;28;20074;-83
2022/11/06 05:52:20;;;;;;;9.45;2.35;;;9.80;99.90;;;;;;5076195;28;20067;-83
2022/11/06 05:54:46;;;;;;;7.68;2.42;;;9.80;99.90;;;;;;5076294;28;20048;-83
2022/11/06 05:57:11;;;;;;;9.77;2.15;;;9.80;99.90;;;;;;5092764;28;20051;-83
2022/11/06 05:59:37;;;;;;;11.65;2.55;;;9.80;99.90;;;;;;5076140;28;20405;-83
2022/11/06 06:02:03;;;;;;;8.65;2.75;;;9.80;99.90;;;;;;5092505;28;20130;-83
2022/11/06 06:04:28;;;;;;;11.05;2.70;;;9.80;99.90;;;;;;5075919;28;20127;-83
2022/11/06 06:06:54;;;;;;;6.97;2.05;;;9.80;99.90;;;;;;5092725;28;20040;-83
2022/11/06 06:09:19;;;;;;;6.40;1.95;;;9.80;99.90;;;;;;5092749;28;20147;-83
2022/11/06 06:11:45;;;;;;;7.57;2.38;;;9.80;99.90;;;;;;5075606;28;20055;-83
2022/11/06 06:14:10;;;;;;;8.00;2.15;;;9.90;99.90;;;;;;5092368;28;20040;-83
2022/11/06 06:16:36;;;;;;;6.68;2.17;;;9.90;99.90;;;;;;5092724;28;20088;-83
2022/11/06 06:19:02;;;;;;;6.18;2.10;;;9.90;99.90;;;;;;5092569;28;20067;-83
2022/11/06 06:21:27;;;;;;;6.07;2.10;;;9.90;99.90;;;;;;5092470;28;20085;-83
2022/11/06 06:23:53;;;;;;;10.98;2.67;;;9.90;99.90;;;;;;5091968;28;20118;-83
2022/11/06 06:26:18;;;;;;;9.80;2.40;;;9.90;99.90;;;;;;5073233;28;20046;-83
2022/11/06 06:28:47;;;;;;;8.27;2.40;;;9.90;99.90;;;;;;5091430;28;20044;-83
2022/11/06 06:31:13;;;;;;;14.35;2.55;;;9.90;99.90;;;;;;5093098;28;20044;-83
2022/11/06 06:33:38;;;;;;;8.50;2.13;;;9.90;99.90;;;;;;5091231;28;20043;-83
2022/11/06 06:36:05;;;;;;;8.93;2.30;;;9.90;99.90;;;;;;5091744;28;20032;-83
2022/11/06 06:38:30;;;;;;;5.57;1.73;;;9.90;99.90;;;;;;5091600;28;20075;-82
2022/11/06 06:41:01;;;;;;;7.53;1.98;;;9.90;99.90;;;;;;5091389;28;20043;-83
2022/11/06 06:43:27;;;;;;;7.35;1.67;;;10.00;99.90;;;;;;5074464;28;20477;-83
2022/11/06 06:45:52;;;;;;;6.70;2.00;;;9.90;99.90;;;;;;5091512;28;20039;-83
2022/11/06 06:48:18;;;;;;;9.02;2.08;;;9.90;99.90;;;;;;5091750;28;20036;-83
2022/11/06 06:50:44;;;;;;;7.13;1.98;;;9.90;99.90;;;;;;5091304;28;20055;-83
2022/11/06 06:53:09;;;;;;;7.47;1.98;;;10.00;99.90;;;;;;5092320;28;20073;-83
2022/11/06 06:55:35;;;;;;;11.98;2.35;;;10.00;99.90;;;;;;5091265;28;20036;-83
2022/11/06 06:58:01;;;;;;;7.55;2.28;;;9.90;99.90;;;;;;5091259;28;20054;-83
2022/11/06 07:00:27;;;;;;;7.20;1.85;;;10.00;99.90;;;;;;5091548;28;20044;-83
2022/11/06 07:02:53;;;;;;;8.43;2.38;;;10.00;99.90;;;;;;5073924;28;20044;-83
2022/11/06 07:05:19;;;;;;;9.18;1.90;;;10.00;99.90;;;;;;5074261;28;20454;-83
2022/11/06 07:07:45;;;;;;;8.35;1.90;;;10.00;99.90;;;;;;5074026;28;20131;-83
2022/11/06 07:10:11;;;;;;;6.65;1.63;;;10.00;99.90;;;;;;5091209;28;20578;-83
2022/11/06 07:12:36;;;;;;;11.23;2.20;;;10.00;99.90;;;;;;5090586;28;20495;-83
2022/11/06 07:15:02;;;;;;;6.95;1.85;;;10.00;99.90;;;;;;5074094;28;20050;-83
2022/11/06 07:17:29;;;;;;;11.18;2.30;;;10.00;99.90;;;;;;5091062;28;20054;-83
2022/11/06 07:19:54;;;;;;;7.65;1.75;;;10.10;99.90;;;;;;5091040;28;20048;-83
2022/11/06 07:22:20;;;;;;;7.55;1.70;;;10.10;99.90;;;;;;5090550;28;20040;-83
2022/11/06 07:24:45;;;;;;;7.97;1.85;;;10.10;99.90;;;;;;5073803;28;20036;-83
2022/11/06 07:27:11;;;;;;;5.60;1.63;;;10.10;99.90;;;;;;5073915;28;20036;-83
2022/11/06 07:29:36;;;;;;;8.88;2.55;;;10.10;99.90;;;;;;5091026;28;20044;-83
2022/11/06 07:32:02;;;;;;;14.18;1.92;;;10.20;99.90;;;;;;5090348;28;20519;-83
2022/11/06 07:34:28;;;;;;;8.57;2.05;;;10.20;99.90;;;;;;5090105;28;20051;-83
2022/11/06 07:36:54;;;;;;;7.40;2.00;;;10.20;99.90;;;;;;5073384;28;20044;-83
2022/11/06 07:39:19;;;;;;;7.50;1.60;;;10.20;99.90;;;;;;5073455;28;20043;-83
2022/11/06 07:41:45;;;;;;;5.00;1.83;;;10.20;99.90;;;;;;5090484;28;20040;-83
2022/11/06 07:44:10;;;;;;;6.00;1.65;;;10.20;99.90;;;;;;5090130;28;20461;-84
2022/11/06 07:46:36;;;;;;;7.50;1.88;;;10.30;99.90;;;;;;5072772;28;20032;-83
2022/11/06 07:49:01;;;;;;;8.75;2.35;;;10.30;99.90;;;;;;5095529;28;20032;-83
2022/11/06 07:51:27;;;;;;;4.60;1.60;;;10.30;99.90;;;;;;5090132;28;20048;-83
2022/11/06 07:53:53;;;;;;;6.82;1.55;;;10.40;99.90;;;;;;5089633;28;20128;-83
2022/11/06 07:56:18;;;;;;;10.23;1.92;;;10.30;99.90;;;;;;5073478;28;20039;-84
2022/11/06 07:58:44;;;;;;;9.45;1.80;;;10.30;99.90;;;;;;5090234;28;20412;-83
2022/11/06 08:01:14;;;;;;;11.60;2.58;;;10.40;99.90;;;;;;5090237;28;20500;-84
2022/11/06 08:03:40;;;;;;;5.82;1.42;;;10.40;99.90;;;;;;5090061;28;20447;-84
2022/11/06 08:06:05;;;;;;;7.20;1.75;;;10.40;99.90;;;;;;5073595;28;20032;-83
2022/11/06 08:08:31;;;;;;;7.85;1.92;;;10.50;99.90;;;;;;5090034;28;20562;-84
2022/11/06 08:11:08;;;;;;;7.35;1.52;;;10.50;99.90;;;;;;5089939;28;20039;-84
2022/11/06 08:13:34;;;;;;;8.52;2.05;;;10.50;99.90;;;;;;5106232;28;20097;-83
2022/11/06 08:16:11;;;;;;;6.93;1.60;;;10.50;99.90;;;;;;5073381;28;20048;-83
2022/11/06 08:18:37;;;;;;;7.53;1.50;;;10.50;99.90;;;;;;5090095;28;20043;-84
2022/11/06 08:21:03;;;;;;;6.40;2.15;;;10.60;99.90;;;;;;5090073;28;20620;-84
2022/11/06 08:23:29;;;;;;;6.57;1.65;;;10.60;99.90;;;;;;5072954;28;20536;-84
2022/11/06 08:25:55;;;;;;;9.90;2.05;;;10.60;99.90;;;;;;5073374;28;20124;-84
2022/11/06 08:28:22;;;;;;;6.85;1.75;;;10.70;99.90;;;;;;5073358;28;20046;-84
2022/11/06 08:30:47;;;;;;;5.20;1.58;;;10.70;99.90;;;;;;5090032;28;20093;-84
2022/11/06 08:33:13;;;;;;;8.65;2.60;;;10.70;99.90;;;;;;5089508;28;20048;-84
2022/11/06 08:35:38;;;;;;;8.80;1.83;;;10.80;99.90;;;;;;5090108;28;20044;-84
2022/11/06 08:38:04;;;;;;;5.78;1.90;;;10.80;99.90;;;;;;5089661;28;20528;-84
2022/11/06 08:40:30;;;;;;;5.50;1.50;;;10.80;99.90;;;;;;5089859;28;20032;-84
2022/11/06 08:43:00;;;;;;;7.95;2.05;;;10.90;99.90;;;;;;5089898;28;20032;-84
2022/11/06 08:45:26;;;;;;;8.10;1.63;;;10.90;99.90;;;;;;5091037;28;20032;-84
2022/11/06 08:47:52;;;;;;;6.82;1.70;;;10.90;99.90;;;;;;5076906;28;20036;-84
2022/11/06 08:50:17;;;;;;;5.43;1.27;;;10.90;99.90;;;;;;5092912;28;20043;-83
2022/11/06 08:52:43;;;;;;;5.18;1.80;;;11.00;99.90;;;;;;5092700;28;20032;-83
2022/11/06 08:55:08;;;;;;;6.82;1.58;;;11.00;99.90;;;;;;5093456;28;20123;-84
2022/11/06 08:57:34;;;;;;;8.52;2.20;;;11.00;99.90;;;;;;5076690;28;20131;-84
2022/11/06 08:59:59;;;;;;;5.28;1.50;;;11.10;99.90;;;;;;5093593;28;20428;-84
2022/11/06 09:02:25;;;;;;;7.53;1.50;;;11.10;99.90;;;;;;5076245;28;20043;-84
2022/11/06 09:04:51;;;;;;;5.07;1.50;;;11.20;99.90;;;;;;5076373;28;20040;-84
2022/11/06 09:07:16;;;;;;;6.65;2.40;;;11.30;99.90;;;;;;5093315;28;20042;-84
2022/11/06 09:09:42;;;;;;;6.57;1.95;;;11.30;99.90;;;;;;5110452;28;20040;-84
2022/11/06 09:12:07;;;;;;;8.20;1.90;;;11.40;99.90;;;;;;5074913;28;20161;-84
2022/11/06 09:14:34;;;;;;;10.25;1.65;;;11.40;99.90;;;;;;5093284;28;20690;-84
2022/11/06 09:16:59;;;;;;;7.07;1.65;;;11.40;99.90;;;;;;5093037;28;20059;-84
2022/11/06 09:19:25;;;;;;;8.07;1.77;;;11.50;99.90;;;;;;5076174;28;20044;-84
2022/11/06 09:21:50;;;;;;;14.95;2.22;;;11.50;99.90;;;;;;5093069;28;20199;-84
2022/11/06 09:24:16;;;;;;;10.90;1.90;;;11.50;99.90;;;;;;5092511;28;20043;-84
2022/11/06 09:26:42;;;;;;;7.13;1.73;;;11.60;99.90;;;;;;5093200;28;20040;-84
2022/11/06 09:29:07;;;;;;;4.25;1.77;;;11.60;99.90;;;;;;5093176;28;20028;-84
2022/11/06 09:31:33;;;;;;;8.02;1.75;;;11.70;99.90;;;;;;5093246;28;20522;-84
2022/11/06 09:33:59;;;;;;;6.40;1.55;;;11.70;99.90;;;;;;5075511;28;20040;-84
2022/11/06 09:36:24;;;;;;;7.68;1.65;;;11.70;99.90;;;;;;5075673;28;20428;-84
2022/11/06 09:38:50;;;;;;;6.43;1.55;;;11.80;99.90;;;;;;5092522;28;20378;-84
2022/11/06 09:41:46;;;;;;;5.45;1.50;;;11.70;99.90;;;;;;5075701;28;20044;-84
2022/11/06 09:44:33;;;;;;;9.15;1.88;;;11.70;99.90;;;;;;5075420;28;20032;-84
2022/11/06 09:47:08;;;;;;;8.00;2.03;;;11.70;99.90;;;;;;5092227;28;20113;-84
2022/11/06 09:49:46;;;;;;;7.07;1.27;;;11.70;99.90;;;;;;5074989;28;20048;-84
2022/11/06 09:52:42;;;;;;;6.88;1.38;;;11.70;99.90;;;;;;5126575;27;20457;-84
2022/11/06 09:55:21;;;;;;;5.38;1.63;;;11.70;99.90;;;;;;5075723;28;20039;-84
2022/11/06 09:57:56;;;;;;;9.00;1.45;;;11.70;99.90;;;;;;5091736;28;20405;-83
2022/11/06 10:00:22;;;;;;;11.20;1.80;;;11.70;99.90;;;;;;5075774;28;20036;-84
2022/11/06 10:03:01;;;;;;;6.78;1.73;;;11.80;99.90;;;;;;5092134;28;20035;-84
2022/11/06 10:05:31;;;;;;;5.22;1.65;;;11.70;99.90;;;;;;5075265;28;20036;-83
2022/11/06 10:08:04;;;;;;;5.95;1.65;;;11.80;99.90;;;;;;5075392;28;20115;-84
2022/11/06 10:10:32;;;;;;;;;;;11.90;99.90;;;;;;5092486;28;20032;-84
2022/11/06 10:13:29;;;;;;;10.18;1.75;;;11.90;99.90;;;;;;5091832;28;19920;-84
2022/11/06 10:16:01;;;;;;;10.82;1.63;;;12.00;99.90;;;;;;5092041;28;20494;-84
2022/11/06 10:18:43;;;;;;;8.15;1.65;;;12.10;99.90;;;;;;5074956;28;20455;-84
2022/11/06 10:21:19;;;;;;;6.72;2.17;;;12.10;99.90;;;;;;5091861;28;20452;-84
2022/11/06 10:24:01;;;;;;;5.45;1.48;;;12.20;99.90;;;;;;5091313;28;20051;-84
2022/11/06 10:26:39;;;;;;;5.72;1.38;;;12.20;99.90;;;;;;5108769;28;20048;-84
2022/11/06 10:29:32;;;;;;;5.85;1.52;;;12.30;99.90;;;;;;5074966;28;20036;-84
2022/11/06 10:32:27;;;;;;;4.78;1.08;;;12.40;99.90;;;;;;5074708;28;20051;-84
2022/11/06 10:35:19;;;;;;;8.95;2.75;;;12.60;99.90;;;;;;5074915;28;20618;-84
2022/11/06 10:38:00;;;;;;;7.05;1.60;;;12.60;99.90;;;;;;5091367;28;20048;-84
2022/11/06 10:40:29;;;;;;;6.18;1.40;;;12.70;99.90;;;;;;5074461;28;20040;-84
2022/11/06 10:43:22;;;;;;;7.25;1.27;;;12.70;99.90;;;;;;5091044;28;20047;-83
2022/11/06 10:45:55;;;;;;;6.95;1.48;;;12.70;99.90;;;;;;5091243;28;20032;-83
2022/11/06 10:48:31;;;;;;;6.75;1.48;;;12.70;99.90;;;;;;5091120;28;20093;-84
2022/11/06 10:51:10;;;;;;;6.78;1.35;;;12.70;99.90;;;;;;5090967;28;20051;-84
2022/11/06 10:53:41;;;;;;;9.63;2.45;;;12.70;99.90;;;;;;5090999;28;20573;-85
2022/11/06 10:56:26;;;;;;;4.97;1.40;;;12.70;99.90;;;;;;5074379;28;20056;-84
2022/11/06 10:58:51;;;;;;;9.68;2.80;;;12.70;99.90;;;;;;5091013;28;20036;-85
2022/11/06 11:01:17;;;;;;;5.55;1.35;;;12.80;99.90;;;;;;5090825;28;20039;-85
2022/11/06 11:03:45;;;;;;;8.05;2.03;;;12.80;99.90;;;;;;5073726;28;20093;-85
2022/11/06 11:06:11;;;;;;;4.25;1.40;;;12.80;99.90;;;;;;5073965;28;20043;-84
2022/11/06 11:08:41;;;;;;;10.60;2.00;;;12.90;99.90;;;;;;5090129;28;20044;-84
2022/11/06 11:11:13;;;;;;;8.48;1.42;;;13.10;99.90;;;;;;5090744;28;20040;-84
2022/11/06 11:13:44;;;;;;;9.40;2.10;;;13.40;99.90;;;;;;5072660;28;20523;-84
2022/11/06 11:16:21;;;;;;;7.53;1.92;;;13.50;99.90;;;;;;5091160;28;20054;-84
2022/11/06 11:18:48;;;;;;;5.07;1.15;;;13.70;99.90;;;;;;5090368;28;20047;-84
2022/11/06 11:21:18;;;;;;;4.60;1.15;;;13.60;99.90;;;;;;5090729;28;20115;-85
2022/11/06 11:23:45;;;;;;;8.07;1.52;;;13.60;99.90;;;;;;5090503;28;20575;-84
2022/11/06 11:26:33;;;;;;;6.10;1.80;;;13.50;99.90;;;;;;5090517;28;20040;-84
2022/11/06 11:29:10;;;;;;;5.00;1.40;;;13.60;99.90;;;;;;5074089;28;20035;-84
2022/11/06 11:31:36;;;;;;;6.07;1.27;;;13.60;99.90;;;;;;5125014;27;20039;-84
2022/11/06 11:34:14;;;;;;;7.05;1.27;;;13.60;99.90;;;;;;5090682;28;20581;-84
2022/11/06 11:36:49;;;;;;;5.93;1.60;;;13.60;99.90;;;;;;5090444;28;20039;-84
2022/11/06 11:39:17;;;;;;;8.75;2.00;;;13.60;99.90;;;;;;5090555;28;20508;-84
2022/11/06 11:41:42;;;;;;;5.93;1.63;;;13.70;99.90;;;;;;5090794;28;20032;-84
2022/11/06 11:44:15;;;;;;;6.32;1.60;;;13.60;99.90;;;;;;5073608;28;20493;-84
2022/11/06 11:46:59;;;;;;;5.18;1.85;;;13.50;99.90;;;;;;5073730;28;20043;-84
2022/11/06 11:49:27;;;;;;;10.43;2.33;;;13.40;99.90;;;;;;5106983;28;20089;-84
2022/11/06 11:51:53;;;;;;;9.23;2.47;;;13.40;99.90;;;;;;5090338;28;20036;-84
2022/11/06 11:54:22;;;;;;;6.50;1.73;;;13.40;99.90;;;;;;5089771;28;20040;-84
2022/11/06 11:57:02;;;;;;;7.82;2.30;;;13.30;99.90;;;;;;5090350;28;20039;-84
2022/11/06 11:59:31;;;;;;;6.65;1.48;;;13.20;99.90;;;;;;5072883;28;20040;-84
2022/11/06 12:02:09;;;;;;;7.13;1.40;;;13.20;99.90;;;;;;5072527;28;20028;-84
2022/11/06 12:04:39;;;;;;;9.20;2.45;;;13.20;99.90;;;;;;5089622;28;20043;-85
2022/11/06 12:07:12;;;;;;;8.10;2.30;;;13.30;99.90;;;;;;5072625;28;20086;-85
2022/11/06 12:09:43;;;;;;;9.18;2.08;;;13.40;99.90;;;;;;5090275;28;20131;-84
2022/11/06 12:12:30;;;;;;;7.20;1.70;;;13.40;99.90;;;;;;5089788;28;20654;-85
2022/11/06 12:15:15;;;;;;;9.23;1.88;;;13.40;99.90;;;;;;5090058;28;20043;-84
2022/11/06 12:17:43;;;;;;;4.82;1.60;;;13.40;99.90;;;;;;5090172;28;20067;-85
2022/11/06 12:20:17;;;;;;;6.28;1.50;;;13.40;99.90;;;;;;5077345;28;20485;-85
2022/11/06 12:22:45;;;;;;;7.55;1.58;;;13.40;99.90;;;;;;5095562;28;20089;-85
2022/11/06 12:25:22;;;;;;;7.65;1.70;;;13.40;99.90;;;;;;5096225;28;20031;-86
2022/11/06 12:27:55;;;;;;;9.18;2.17;;;13.40;99.90;;;;;;5096710;28;20119;-85
2022/11/06 12:30:21;;;;;;;5.10;1.60;;;13.40;99.90;;;;;;5096883;28;20109;-86
2022/11/06 12:33:13;;;;;;;9.30;2.47;;;13.40;99.90;;;;;;5096153;28;20044;-85
2022/11/06 12:35:47;;;;;;;7.40;1.67;;;13.50;99.90;;;;;;5095908;28;20062;-86
2022/11/06 12:38:40;;;;;;;9.15;1.67;;;13.50;99.90;;;;;;5096992;28;20400;-86
2022/11/06 12:41:11;;;;;;;5.25;1.30;;;13.40;99.90;;;;;;5096952;28;20032;-86
2022/11/06 12:43:41;;;;;;;8.23;2.13;;;13.30;99.90;;;;;;5096667;28;20124;-86
2022/11/06 12:46:35;;;;;;;9.20;1.38;;;13.30;99.90;;;;;;5096958;28;20515;-86
2022/11/06 12:49:47;;;;;;;5.15;1.20;;;13.30;99.90;;;;;;5097345;28;20105;-86
2022/11/06 12:52:29;;;;;;;4.13;1.40;;;13.20;99.90;;;;;;5096692;28;20044;-85
2022/11/06 12:55:10;;;;;;;8.15;2.22;;;13.20;99.90;;;;;;5097034;28;20075;-85
2022/11/06 12:57:42;;;;;;;9.88;2.00;;;13.30;99.90;;;;;;5096842;28;20054;-86
2022/11/06 13:00:12;;;;;;;9.02;1.63;;;13.30;99.90;;;;;;5079947;28;20457;-86
2022/11/06 13:02:47;;;;;;;9.25;1.48;;;13.20;99.90;;;;;;5096529;28;20036;-85
2022/11/06 13:05:21;;;;;;;6.70;1.40;;;13.20;99.90;;;;;;5079953;28;20032;-86
2022/11/06 13:08:09;;;;;;;7.72;2.05;;;13.10;99.90;;;;;;5096826;28;20035;-85
2022/11/06 13:10:43;;;;;;;4.15;1.10;;;13.10;99.90;;;;;;5097062;28;20244;-85
2022/11/06 13:13:26;;;;;;;4.68;0.98;;;13.10;99.90;;;;;;5096376;28;20040;-85
2022/11/06 13:16:14;;;;;;;7.90;1.83;;;13.10;99.90;;;;;;5079861;28;20047;-85